Lr2 Pioneer — VREE7 — position and weather

sailwx.info

Track history (hours):
 
Tides and Currents Weather Stations Pressure Air Temp Water Temp Dewpoint Dewpoint Depression Visibility Wind Speed Wind Dir Waves Ship Positions

Lr2 Pioneer

Last reported at 2017-May-25 18:27 UTC. Time now 2017-May-27 06:07 UTC.
Position N 32°60' E 127°12'.

Length 244 m; draft 12 m.

Type: Tanker. MMSI: 477114400.

Date/timePositionNaut miles runAvg speedWind from/ knotsBaromVisibWave heightAir tempDewpointWater temp
2017-May-25 18:27N 32°60' E 127°12'612.6
2017-May-25 18:00N 32°55' E 127°09'1912.9
2017-May-25 16:32N 32°37' E 126°59'112.6
2017-May-25 16:28N 32°37' E 126°59'612.9
2017-May-25 16:00N 32°31' E 126°57'4013.1
2017-May-25 12:55N 31°53' E 126°42'613.6
2017-May-25 12:30N 31°47' E 126°40'713.6
2017-May-25 12:00N 31°41' E 126°37'913.4
2017-May-25 11:22N 31°33' E 126°33'  
2017-May-18 02:27N 01°15' E 104°03'510.3
2017-May-18 02:00N 01°14' E 103°58'510.8
2017-May-18 01:30N 01°12' E 103°53'611.2
2017-May-18 01:00N 01°10' E 103°48'713.1
2017-May-18 00:30N 01°05' E 103°43'611.2
2017-May-17 23:59N 01°03' E 103°38'611.9
2017-May-17 23:30N 01°06' E 103°33'611.8
2017-May-17 23:00N 01°09' E 103°28'611.5
2017-May-17 22:29N 01°13' E 103°23'611.6
2017-May-17 21:59N 01°16' E 103°18'5311.5
2017-May-17 17:22N 01°44' E 102°33'711.7
2017-May-17 16:45N 01°47' E 102°27'311.8
2017-May-17 16:30N 01°48' E 102°24'611.9
2017-May-17 15:58N 01°51' E 102°18'  
Track history (hours):
 
Tides and Currents Weather Stations Pressure Air Temp Water Temp Dewpoint Dewpoint Depression Visibility Wind Speed Wind Dir Waves Ship Positions

Lr2 Pioneer

Last reported at 2017-May-25 18:27 UTC. Time now 2017-May-27 06:07 UTC.
Position N 32°60' E 127°12'.

Length 244 m; draft 12 m.

Type: Tanker. MMSI: 477114400.

Date/timePositionNaut miles runAvg speedWind from/ knotsBaromVisibWave heightAir tempDewpointWater temp
2017-May-25 18:27N 32°60' E 127°12'612.6
2017-May-25 18:00N 32°55' E 127°09'1912.9
2017-May-25 16:32N 32°37' E 126°59'112.6
2017-May-25 16:28N 32°37' E 126°59'612.9
2017-May-25 16:00N 32°31' E 126°57'4013.1
2017-May-25 12:55N 31°53' E 126°42'613.6
2017-May-25 12:30N 31°47' E 126°40'713.6
2017-May-25 12:00N 31°41' E 126°37'913.4
2017-May-25 11:22N 31°33' E 126°33'  
2017-May-18 02:27N 01°15' E 104°03'510.3
2017-May-18 02:00N 01°14' E 103°58'510.8
2017-May-18 01:30N 01°12' E 103°53'611.2
2017-May-18 01:00N 01°10' E 103°48'713.1
2017-May-18 00:30N 01°05' E 103°43'611.2
2017-May-17 23:59N 01°03' E 103°38'611.9
2017-May-17 23:30N 01°06' E 103°33'611.8
2017-May-17 23:00N 01°09' E 103°28'611.5
2017-May-17 22:29N 01°13' E 103°23'611.6
2017-May-17 21:59N 01°16' E 103°18'5311.5
2017-May-17 17:22N 01°44' E 102°33'711.7
2017-May-17 16:45N 01°47' E 102°27'311.8
2017-May-17 16:30N 01°48' E 102°24'611.9
2017-May-17 15:58N 01°51' E 102°18'  

Dump ship's entire track history